sensor_id;sensor_type;location;lat;lon;timestamp;pressure;altitude;pressure_sealevel;temperature;humidity
43770;BME280;6597;52.218;9.882;2023-02-01T00:01:50;100744.72;;;4.67;88.27
43770;BME280;6597;52.218;9.882;2023-02-01T00:04:17;100746.53;;;4.62;88.48
43770;BME280;6597;52.218;9.882;2023-02-01T00:06:43;100736.16;;;4.60;88.81
43770;BME280;6597;52.218;9.882;2023-02-01T00:09:10;100738.78;;;4.57;88.93
43770;BME280;6597;52.218;9.882;2023-02-01T00:11:36;100734.47;;;4.52;89.45
43770;BME280;6597;52.218;9.882;2023-02-01T00:14:04;100729.31;;;4.49;89.78
43770;BME280;6597;52.218;9.882;2023-02-01T00:16:31;100720.69;;;4.45;89.83
43770;BME280;6597;52.218;9.882;2023-02-01T00:18:59;100734.63;;;4.40;90.28
43770;BME280;6597;52.218;9.882;2023-02-01T00:21:28;100731.13;;;4.42;89.64
43770;BME280;6597;52.218;9.882;2023-02-01T00:23:55;100721.59;;;4.41;89.81
43770;BME280;6597;52.218;9.882;2023-02-01T00:26:27;100732.00;;;4.41;90.25
43770;BME280;6597;52.218;9.882;2023-02-01T00:28:54;100726.84;;;4.38;90.53
43770;BME280;6597;52.218;9.882;2023-02-01T00:31:22;100721.72;;;4.32;91.31
43770;BME280;6597;52.218;9.882;2023-02-01T00:33:49;100713.06;;;4.30;90.77
43770;BME280;6597;52.218;9.882;2023-02-01T00:36:16;100716.59;;;4.24;91.47
43770;BME280;6597;52.218;9.882;2023-02-01T00:38:43;100721.81;;;4.23;91.12
43770;BME280;6597;52.218;9.882;2023-02-01T00:41:11;100712.28;;;4.19;91.72
43770;BME280;6597;52.218;9.882;2023-02-01T00:43:39;100715.72;;;4.24;91.34
43770;BME280;6597;52.218;9.882;2023-02-01T00:46:06;100721.75;;;4.27;90.95
43770;BME280;6597;52.218;9.882;2023-02-01T00:48:34;100720.88;;;4.30;90.87
43770;BME280;6597;52.218;9.882;2023-02-01T00:51:01;100728.69;;;4.27;91.18
43770;BME280;6597;52.218;9.882;2023-02-01T00:53:28;100719.19;;;4.26;91.07
43770;BME280;6597;52.218;9.882;2023-02-01T00:55:55;100707.94;;;4.24;91.15
43770;BME280;6597;52.218;9.882;2023-02-01T00:58:22;100717.47;;;4.20;91.92
43770;BME280;6597;52.218;9.882;2023-02-01T01:00:49;100699.34;;;4.14;91.39
43770;BME280;6597;52.218;9.882;2023-02-01T01:03:15;100702.78;;;4.16;91.24
43770;BME280;6597;52.218;9.882;2023-02-01T01:05:47;100708.91;;;4.12;91.63
43770;BME280;6597;52.218;9.882;2023-02-01T01:08:15;100710.59;;;4.15;91.27
43770;BME280;6597;52.218;9.882;2023-02-01T01:10:42;100701.94;;;4.16;91.08
43770;BME280;6597;52.218;9.882;2023-02-01T01:13:09;100690.75;;;4.09;91.24
43770;BME280;6597;52.218;9.882;2023-02-01T01:15:38;100686.44;;;4.08;91.65
43770;BME280;6597;52.218;9.882;2023-02-01T01:18:06;100689.97;;;3.99;92.32
43770;BME280;6597;52.218;9.882;2023-02-01T01:20:34;100695.25;;;3.93;92.65
43770;BME280;6597;52.218;9.882;2023-02-01T01:23:03;100698.72;;;3.92;92.94
43770;BME280;6597;52.218;9.882;2023-02-01T01:25:30;100697.88;;;3.90;93.52
43770;BME280;6597;52.218;9.882;2023-02-01T01:27:57;100694.34;;;3.96;92.93
43770;BME280;6597;52.218;9.882;2023-02-01T01:30:24;100698.69;;;3.95;93.35
43770;BME280;6597;52.218;9.882;2023-02-01T01:32:51;100694.38;;;3.94;92.89
43770;BME280;6597;52.218;9.882;2023-02-01T01:35:18;100683.13;;;3.92;93.27
43770;BME280;6597;52.218;9.882;2023-02-01T01:37:44;100683.13;;;3.94;92.90
43770;BME280;6597;52.218;9.882;2023-02-01T01:40:13;100686.59;;;3.91;93.28
43770;BME280;6597;52.218;9.882;2023-02-01T01:42:41;100683.13;;;3.89;93.00
43770;BME280;6597;52.218;9.882;2023-02-01T01:45:19;100682.25;;;3.89;93.56
43770;BME280;6597;52.218;9.882;2023-02-01T01:47:48;100679.66;;;3.89;93.27
43770;BME280;6597;52.218;9.882;2023-02-01T01:50:19;100684.00;;;3.90;93.36
43770;BME280;6597;52.218;9.882;2023-02-01T01:52:49;100679.63;;;3.95;92.55
43770;BME280;6597;52.218;9.882;2023-02-01T01:55:20;100677.06;;;3.93;92.87
43770;BME280;6597;52.218;9.882;2023-02-01T01:57:52;100680.53;;;3.91;93.08
43770;BME280;6597;52.218;9.882;2023-02-01T02:00:21;100666.72;;;3.84;92.93
43770;BME280;6597;52.218;9.882;2023-02-01T02:02:54;100667.56;;;3.88;92.86
43770;BME280;6597;52.218;9.882;2023-02-01T02:05:23;100659.78;;;3.86;93.10
43770;BME280;6597;52.218;9.882;2023-02-01T02:07:52;100663.28;;;3.84;93.59
43770;BME280;6597;52.218;9.882;2023-02-01T02:10:21;100657.22;;;3.83;93.50
43770;BME280;6597;52.218;9.882;2023-02-01T02:13:08;100644.28;;;3.80;93.16
43770;BME280;6597;52.218;9.882;2023-02-01T02:15:40;100656.38;;;3.81;94.00
43770;BME280;6597;52.218;9.882;2023-02-01T02:18:12;100662.47;;;3.79;93.99
43770;BME280;6597;52.218;9.882;2023-02-01T02:20:52;100665.06;;;3.79;94.28
43770;BME280;6597;52.218;9.882;2023-02-01T02:27:01;100659.78;;;3.86;94.41
43770;BME280;6597;52.218;9.882;2023-02-01T02:32:44;100645.91;;;3.93;94.07
43770;BME280;6597;52.218;9.882;2023-02-01T02:35:20;100643.22;;;3.99;93.88
43770;BME280;6597;52.218;9.882;2023-02-01T02:37:56;100651.81;;;4.07;93.29
43770;BME280;6597;52.218;9.882;2023-02-01T02:40:32;100639.66;;;4.10;93.39
43770;BME280;6597;52.218;9.882;2023-02-01T02:43:05;100630.91;;;4.17;93.14
43770;BME280;6597;52.218;9.882;2023-02-01T02:45:55;100626.53;;;4.20;93.09
43770;BME280;6597;52.218;9.882;2023-02-01T02:48:52;100627.38;;;4.25;92.07
43770;BME280;6597;52.218;9.882;2023-02-01T02:51:27;100611.72;;;4.30;91.75
43770;BME280;6597;52.218;9.882;2023-02-01T02:54:16;100608.22;;;4.34;91.19
43770;BME280;6597;52.218;9.882;2023-02-01T02:57:04;100608.16;;;4.38;91.62
43770;BME280;6597;52.218;9.882;2023-02-01T02:59:50;100602.06;;;4.41;90.78
43770;BME280;6597;52.218;9.882;2023-02-01T03:02:37;100599.41;;;4.44;90.16
43770;BME280;6597;52.218;9.882;2023-02-01T03:05:21;100595.06;;;4.45;90.82
43770;BME280;6597;52.218;9.882;2023-02-01T03:08:01;100589.84;;;4.46;90.45
43770;BME280;6597;52.218;9.882;2023-02-01T03:10:35;100590.69;;;4.48;90.83
43770;BME280;6597;52.218;9.882;2023-02-01T03:13:08;100583.72;;;4.50;89.66
43770;BME280;6597;52.218;9.882;2023-02-01T03:15:39;100575.91;;;4.52;90.27
43770;BME280;6597;52.218;9.882;2023-02-01T03:18:13;100584.56;;;4.54;90.20
43770;BME280;6597;52.218;9.882;2023-02-01T03:20:44;100577.63;;;4.56;89.67
43770;BME280;6597;52.218;9.882;2023-02-01T03:23:16;100575.00;;;4.54;89.79
43770;BME280;6597;52.218;9.882;2023-02-01T03:25:47;100566.31;;;4.58;89.96
43770;BME280;6597;52.218;9.882;2023-02-01T03:28:15;100562.88;;;4.55;89.82
43770;BME280;6597;52.218;9.882;2023-02-01T03:30:45;100559.38;;;4.59;90.25
43770;BME280;6597;52.218;9.882;2023-02-01T03:33:14;100552.41;;;4.62;89.66
43770;BME280;6597;52.218;9.882;2023-02-01T03:35:55;100555.81;;;4.66;90.23
43770;BME280;6597;52.218;9.882;2023-02-01T03:38:29;100569.38;;;4.85;89.79
43770;BME280;6597;52.218;9.882;2023-02-01T03:41:02;100556.38;;;4.85;90.23
43770;BME280;6597;52.218;9.882;2023-02-01T03:43:34;100547.66;;;4.87;90.71
43770;BME280;6597;52.218;9.882;2023-02-01T03:46:09;100543.34;;;4.86;91.36
43770;BME280;6597;52.218;9.882;2023-02-01T03:48:39;100541.66;;;4.84;91.38
43770;BME280;6597;52.218;9.882;2023-02-01T03:51:07;100552.00;;;4.87;91.76
43770;BME280;6597;52.218;9.882;2023-02-01T03:53:36;100539.34;;;4.65;92.87
43770;BME280;6597;52.218;9.882;2023-02-01T03:56:06;100533.41;;;4.57;94.15
43770;BME280;6597;52.218;9.882;2023-02-01T03:58:33;100525.69;;;4.50;95.34
43770;BME280;6597;52.218;9.882;2023-02-01T04:01:00;100514.59;;;4.38;96.12
43770;BME280;6597;52.218;9.882;2023-02-01T04:03:30;100517.97;;;4.44;96.76
43770;BME280;6597;52.218;9.882;2023-02-01T04:05:57;100518.88;;;4.41;97.23
43770;BME280;6597;52.218;9.882;2023-02-01T04:08:26;100521.59;;;4.33;97.30
43770;BME280;6597;52.218;9.882;2023-02-01T04:10:54;100517.34;;;4.28;97.78
43770;BME280;6597;52.218;9.882;2023-02-01T04:13:21;100513.94;;;4.21;98.27
43770;BME280;6597;52.218;9.882;2023-02-01T04:15:47;100499.19;;;4.25;98.22
43770;BME280;6597;52.218;9.882;2023-02-01T04:18:15;100505.25;;;4.27;98.51
43770;BME280;6597;52.218;9.882;2023-02-01T04:20:43;100501.72;;;4.31;98.03
43770;BME280;6597;52.218;9.882;2023-02-01T04:23:10;100502.53;;;4.33;98.53
43770;BME280;6597;52.218;9.882;2023-02-01T04:25:36;100502.53;;;4.34;98.17
43770;BME280;6597;52.218;9.882;2023-02-01T04:28:04;100496.41;;;4.38;97.21
43770;BME280;6597;52.218;9.882;2023-02-01T04:30:32;100497.16;;;4.45;96.21
43770;BME280;6597;52.218;9.882;2023-02-01T04:32:58;100490.19;;;4.49;96.22
43770;BME280;6597;52.218;9.882;2023-02-01T04:35:25;100491.00;;;4.52;95.38
43770;BME280;6597;52.218;9.882;2023-02-01T04:37:51;100483.19;;;4.52;95.16
43770;BME280;6597;52.218;9.882;2023-02-01T04:40:18;100477.16;;;4.50;94.77
43770;BME280;6597;52.218;9.882;2023-02-01T04:42:44;100472.81;;;4.51;94.20
43770;BME280;6597;52.218;9.882;2023-02-01T04:45:12;100477.94;;;4.58;94.01
43770;BME280;6597;52.218;9.882;2023-02-01T04:47:39;100470.97;;;4.60;94.10
43770;BME280;6597;52.218;9.882;2023-02-01T04:50:06;100468.25;;;4.68;93.29
43770;BME280;6597;52.218;9.882;2023-02-01T04:52:35;100464.75;;;4.69;92.80
43770;BME280;6597;52.218;9.882;2023-02-01T04:55:03;100446.44;;;4.75;91.33
43770;BME280;6597;52.218;9.882;2023-02-01T04:57:30;100447.16;;;4.85;91.08
43770;BME280;6597;52.218;9.882;2023-02-01T04:59:56;100446.22;;;4.90;91.01
43770;BME280;6597;52.218;9.882;2023-02-01T05:02:24;100434.94;;;4.91;90.94
43770;BME280;6597;52.218;9.882;2023-02-01T05:04:51;100445.38;;;4.87;92.22
43770;BME280;6597;52.218;9.882;2023-02-01T05:07:17;100443.81;;;4.78;94.49
43770;BME280;6597;52.218;9.882;2023-02-01T05:09:44;100436.28;;;4.61;96.02
43770;BME280;6597;52.218;9.882;2023-02-01T05:12:10;100446.00;;;4.49;97.78
43770;BME280;6597;52.218;9.882;2023-02-01T05:15:00;100451.34;;;4.40;99.26
43770;BME280;6597;52.218;9.882;2023-02-01T05:17:28;100434.09;;;4.34;99.77
43770;BME280;6597;52.218;9.882;2023-02-01T05:19:54;100446.28;;;4.30;100.00
43770;BME280;6597;52.218;9.882;2023-02-01T05:22:21;100433.31;;;4.29;100.00
43770;BME280;6597;52.218;9.882;2023-02-01T05:24:48;100429.91;;;4.25;100.00
43770;BME280;6597;52.218;9.882;2023-02-01T05:27:14;100420.34;;;4.27;100.00
43770;BME280;6597;52.218;9.882;2023-02-01T05:29:41;100433.31;;;4.29;99.56
43770;BME280;6597;52.218;9.882;2023-02-01T05:32:09;100419.50;;;4.27;100.00
43770;BME280;6597;52.218;9.882;2023-02-01T05:34:37;100419.50;;;4.27;100.00
43770;BME280;6597;52.218;9.882;2023-02-01T05:37:03;100420.38;;;4.26;100.00
43770;BME280;6597;52.218;9.882;2023-02-01T05:39:30;100432.53;;;4.24;100.00
43770;BME280;6597;52.218;9.882;2023-02-01T05:41:56;100426.44;;;4.26;100.00
43770;BME280;6597;52.218;9.882;2023-02-01T05:44:23;100427.25;;;4.30;99.91
43770;BME280;6597;52.218;9.882;2023-02-01T05:46:50;100427.19;;;4.33;98.79
43770;BME280;6597;52.218;9.882;2023-02-01T05:49:17;100425.41;;;4.36;98.73
43770;BME280;6597;52.218;9.882;2023-02-01T05:51:45;100414.97;;;4.40;98.64
43770;BME280;6597;52.218;9.882;2023-02-01T05:54:12;100417.53;;;4.41;97.90
43770;BME280;6597;52.218;9.882;2023-02-01T05:56:38;100423.41;;;4.52;97.40
43770;BME280;6597;52.218;9.882;2023-02-01T05:59:06;100412.06;;;4.59;97.15
43770;BME280;6597;52.218;9.882;2023-02-01T06:01:33;100411.16;;;4.62;95.66
43770;BME280;6597;52.218;9.882;2023-02-01T06:03:59;100407.28;;;4.84;95.28
43770;BME280;6597;52.218;9.882;2023-02-01T06:06:26;100395.13;;;4.88;94.40
43770;BME280;6597;52.218;9.882;2023-02-01T06:08:54;100397.66;;;4.91;94.56
43770;BME280;6597;52.218;9.882;2023-02-01T06:11:20;100405.47;;;4.91;93.62
43770;BME280;6597;52.218;9.882;2023-02-01T06:13:47;100407.22;;;4.89;94.42
43770;BME280;6597;52.218;9.882;2023-02-01T06:16:14;100401.22;;;4.84;94.98
43770;BME280;6597;52.218;9.882;2023-02-01T06:18:41;100397.00;;;4.78;96.45
43770;BME280;6597;52.218;9.882;2023-02-01T06:21:08;100391.84;;;4.75;96.85
43770;BME280;6597;52.218;9.882;2023-02-01T06:23:35;100406.66;;;4.72;97.83
43770;BME280;6597;52.218;9.882;2023-02-01T06:26:04;100390.38;;;4.60;98.23
43770;BME280;6597;52.218;9.882;2023-02-01T06:28:33;100398.00;;;4.71;98.57
43770;BME280;6597;52.218;9.882;2023-02-01T06:31:03;100394.56;;;4.69;98.93
43770;BME280;6597;52.218;9.882;2023-02-01T06:33:32;100380.69;;;4.68;98.58
43770;BME280;6597;52.218;9.882;2023-02-01T06:36:00;100391.91;;;4.72;97.80
43770;BME280;6597;52.218;9.882;2023-02-01T06:38:27;100393.53;;;4.78;97.28
43770;BME280;6597;52.218;9.882;2023-02-01T06:40:54;100395.28;;;4.77;97.08
43770;BME280;6597;52.218;9.882;2023-02-01T06:43:25;100403.00;;;4.82;97.09
43770;BME280;6597;52.218;9.882;2023-02-01T06:45:52;100400.50;;;4.76;98.78
43770;BME280;6597;52.218;9.882;2023-02-01T06:48:18;100408.53;;;4.63;100.00
43770;BME280;6597;52.218;9.882;2023-02-01T06:50:45;100419.03;;;4.57;100.00
43770;BME280;6597;52.218;9.882;2023-02-01T06:53:12;100410.56;;;4.43;100.00
43770;BME280;6597;52.218;9.882;2023-02-01T06:55:39;100421.09;;;4.35;100.00
43770;BME280;6597;52.218;9.882;2023-02-01T06:58:05;100439.22;;;4.38;100.00
43770;BME280;6597;52.218;9.882;2023-02-01T07:00:33;100427.06;;;4.41;100.00
43770;BME280;6597;52.218;9.882;2023-02-01T07:03:00;100430.50;;;4.43;100.00
43770;BME280;6597;52.218;9.882;2023-02-01T07:05:27;100436.50;;;4.46;100.00
43770;BME280;6597;52.218;9.882;2023-02-01T07:07:54;100434.84;;;4.42;100.00
43770;BME280;6597;52.218;9.882;2023-02-01T07:10:21;100454.78;;;4.40;100.00
43770;BME280;6597;52.218;9.882;2023-02-01T07:12:48;100450.44;;;4.42;100.00
43770;BME280;6597;52.218;9.882;2023-02-01T07:15:14;100457.44;;;4.37;100.00
43770;BME280;6597;52.218;9.882;2023-02-01T07:17:42;100465.25;;;4.35;100.00
43770;BME280;6597;52.218;9.882;2023-02-01T07:20:10;100454.88;;;4.35;100.00
43770;BME280;6597;52.218;9.882;2023-02-01T07:22:37;100459.16;;;4.38;100.00
43770;BME280;6597;52.218;9.882;2023-02-01T07:25:05;100452.28;;;4.35;100.00
43770;BME280;6597;52.218;9.882;2023-02-01T07:27:33;100452.25;;;4.37;100.00
43770;BME280;6597;52.218;9.882;2023-02-01T07:29:59;100454.78;;;4.40;100.00
43770;BME280;6597;52.218;9.882;2023-02-01T07:32:27;100449.56;;;4.43;100.00
43770;BME280;6597;52.218;9.882;2023-02-01T07:34:55;100441.75;;;4.43;100.00
43770;BME280;6597;52.218;9.882;2023-02-01T07:37:21;100436.56;;;4.43;100.00
43770;BME280;6597;52.218;9.882;2023-02-01T07:39:49;100433.16;;;4.40;100.00
43770;BME280;6597;52.218;9.882;2023-02-01T07:42:17;100445.13;;;4.48;100.00
43770;BME280;6597;52.218;9.882;2023-02-01T07:44:44;100439.84;;;4.56;100.00
43770;BME280;6597;52.218;9.882;2023-02-01T07:47:11;100447.41;;;4.69;100.00
43770;BME280;6597;52.218;9.882;2023-02-01T07:49:37;100435.06;;;4.82;98.68
43770;BME280;6597;52.218;9.882;2023-02-01T07:52:05;100447.78;;;4.99;97.76
43770;BME280;6597;52.218;9.882;2023-02-01T07:54:32;100463.16;;;5.13;96.68
43770;BME280;6597;52.218;9.882;2023-02-01T07:56:58;100454.25;;;5.26;95.42
43770;BME280;6597;52.218;9.882;2023-02-01T07:59:25;100454.13;;;5.34;94.91
43770;BME280;6597;52.218;9.882;2023-02-01T08:01:52;100448.00;;;5.36;92.56
43770;BME280;6597;52.218;9.882;2023-02-01T08:04:18;100456.59;;;5.40;92.68
43770;BME280;6597;52.218;9.882;2023-02-01T08:06:45;100452.25;;;5.40;92.75
43770;BME280;6597;52.218;9.882;2023-02-01T08:09:13;100459.16;;;5.41;92.99
43770;BME280;6597;52.218;9.882;2023-02-01T08:11:40;100450.63;;;5.35;92.59
43770;BME280;6597;52.218;9.882;2023-02-01T08:14:06;100467.72;;;5.48;92.79
43770;BME280;6597;52.218;9.882;2023-02-01T08:16:33;100472.09;;;5.46;92.70
43770;BME280;6597;52.218;9.882;2023-02-01T08:19:02;100463.34;;;5.50;92.30
43770;BME280;6597;52.218;9.882;2023-02-01T08:21:29;100466.81;;;5.50;91.63
43770;BME280;6597;52.218;9.882;2023-02-01T08:24:03;100473.69;;;5.54;91.47
43770;BME280;6597;52.218;9.882;2023-02-01T08:26:32;100470.13;;;5.58;90.79
43770;BME280;6597;52.218;9.882;2023-02-01T08:29:00;100474.38;;;5.64;90.99
43770;BME280;6597;52.218;9.882;2023-02-01T08:31:28;100477.84;;;5.65;90.94
43770;BME280;6597;52.218;9.882;2023-02-01T08:33:57;100479.44;;;5.70;90.64
43770;BME280;6597;52.218;9.882;2023-02-01T08:36:25;100482.13;;;5.67;89.36
43770;BME280;6597;52.218;9.882;2023-02-01T08:38:52;100474.16;;;5.75;88.54
43770;BME280;6597;52.218;9.882;2023-02-01T08:41:20;100490.53;;;5.80;88.07
43770;BME280;6597;52.218;9.882;2023-02-01T08:43:49;100479.28;;;5.78;88.75
43770;BME280;6597;52.218;9.882;2023-02-01T08:46:16;100488.69;;;5.85;88.48
43770;BME280;6597;52.218;9.882;2023-02-01T08:48:44;100485.16;;;5.90;88.03
43770;BME280;6597;52.218;9.882;2023-02-01T08:51:13;100481.66;;;5.91;87.02
43770;BME280;6597;52.218;9.882;2023-02-01T08:53:40;100475.47;;;5.97;86.77
43770;BME280;6597;52.218;9.882;2023-02-01T08:56:12;100472.75;;;6.02;86.84
43770;BME280;6597;52.218;9.882;2023-02-01T08:58:39;100496.97;;;6.07;86.37
43770;BME280;6597;52.218;9.882;2023-02-01T09:01:08;100497.63;;;6.18;85.44
43770;BME280;6597;52.218;9.882;2023-02-01T09:03:35;100480.19;;;6.21;85.16
43770;BME280;6597;52.218;9.882;2023-02-01T09:06:03;100483.66;;;6.20;84.68
43770;BME280;6597;52.218;9.882;2023-02-01T09:08:31;100486.28;;;6.59;83.87
43770;BME280;6597;52.218;9.882;2023-02-01T09:10:59;100497.63;;;6.94;82.30
43770;BME280;6597;52.218;9.882;2023-02-01T09:13:26;100495.31;;;7.17;80.21
43770;BME280;6597;52.218;9.882;2023-02-01T09:15:52;100491.94;;;7.12;79.78
43770;BME280;6597;52.218;9.882;2023-02-01T09:18:20;100483.28;;;7.10;78.94
43770;BME280;6597;52.218;9.882;2023-02-01T09:20:47;100488.34;;;7.17;79.10
43770;BME280;6597;52.218;9.882;2023-02-01T09:23:14;100482.53;;;7.06;78.91
43770;BME280;6597;52.218;9.882;2023-02-01T09:25:40;100487.16;;;6.95;78.22
43770;BME280;6597;52.218;9.882;2023-02-01T09:28:07;100473.53;;;6.82;79.42
43770;BME280;6597;52.218;9.882;2023-02-01T09:30:36;100485.72;;;6.82;81.24
43770;BME280;6597;52.218;9.882;2023-02-01T09:33:03;100491.53;;;6.58;82.78
43770;BME280;6597;52.218;9.882;2023-02-01T09:35:31;100489.91;;;6.53;83.85
43770;BME280;6597;52.218;9.882;2023-02-01T09:37:58;100484.75;;;6.49;84.82
43770;BME280;6597;52.218;9.882;2023-02-01T09:40:24;100493.22;;;6.60;84.73
43770;BME280;6597;52.218;9.882;2023-02-01T09:43:11;100490.00;;;6.47;84.96
43770;BME280;6597;52.218;9.882;2023-02-01T09:45:51;100504.00;;;6.43;85.16
43770;BME280;6597;52.218;9.882;2023-02-01T09:48:24;100505.63;;;6.49;85.25
43770;BME280;6597;52.218;9.882;2023-02-01T09:50:56;100492.56;;;6.49;84.32
43770;BME280;6597;52.218;9.882;2023-02-01T09:53:29;100498.56;;;6.54;84.65
43770;BME280;6597;52.218;9.882;2023-02-01T09:56:02;100500.31;;;6.53;84.98
43770;BME280;6597;52.218;9.882;2023-02-01T09:58:35;100493.09;;;6.65;84.34
43770;BME280;6597;52.218;9.882;2023-02-01T10:01:10;100503.59;;;6.62;83.91
43770;BME280;6597;52.218;9.882;2023-02-01T10:03:41;100506.88;;;6.70;83.32
43770;BME280;6597;52.218;9.882;2023-02-01T10:06:39;100496.69;;;6.61;82.89
43770;BME280;6597;52.218;9.882;2023-02-01T10:09:18;100495.81;;;6.60;83.01
43770;BME280;6597;52.218;9.882;2023-02-01T10:11:58;100490.41;;;6.68;83.25
43770;BME280;6597;52.218;9.882;2023-02-01T10:14:48;100495.63;;;6.68;82.80
43770;BME280;6597;52.218;9.882;2023-02-01T10:17:25;100489.31;;;6.78;82.96
43770;BME280;6597;52.218;9.882;2023-02-01T10:20:04;100483.88;;;6.87;82.57
43770;BME280;6597;52.218;9.882;2023-02-01T10:22:40;100483.09;;;6.83;82.76
43770;BME280;6597;52.218;9.882;2023-02-01T10:25:14;100477.69;;;6.91;81.61
43770;BME280;6597;52.218;9.882;2023-02-01T10:27:44;100485.13;;;7.06;80.31
43770;BME280;6597;52.218;9.882;2023-02-01T10:30:19;100482.31;;;7.15;80.18
43770;BME280;6597;52.218;9.882;2023-02-01T10:32:48;100477.78;;;7.22;79.13
43770;BME280;6597;52.218;9.882;2023-02-01T10:35:17;100460.38;;;7.23;78.98
43770;BME280;6597;52.218;9.882;2023-02-01T10:37:45;100469.63;;;7.34;78.38
43770;BME280;6597;52.218;9.882;2023-02-01T10:40:16;100469.56;;;7.36;79.05
43770;BME280;6597;52.218;9.882;2023-02-01T10:42:45;100453.22;;;7.29;78.38
43770;BME280;6597;52.218;9.882;2023-02-01T10:45:15;100468.31;;;7.18;78.89
43770;BME280;6597;52.218;9.882;2023-02-01T10:47:44;100468.84;;;7.31;78.37
43770;BME280;6597;52.218;9.882;2023-02-01T10:50:17;100476.38;;;7.41;78.39
43770;BME280;6597;52.218;9.882;2023-02-01T10:52:51;100459.03;;;7.39;78.24
43770;BME280;6597;52.218;9.882;2023-02-01T10:55:27;100457.66;;;7.26;77.26
43770;BME280;6597;52.218;9.882;2023-02-01T10:57:56;100464.47;;;7.31;77.53
43770;BME280;6597;52.218;9.882;2023-02-01T11:00:24;100464.69;;;7.24;78.49
43770;BME280;6597;52.218;9.882;2023-02-01T11:02:50;100463.31;;;7.09;77.66
43770;BME280;6597;52.218;9.882;2023-02-01T11:05:18;100457.47;;;6.99;78.10
43770;BME280;6597;52.218;9.882;2023-02-01T11:07:48;100464.66;;;6.91;79.01
43770;BME280;6597;52.218;9.882;2023-02-01T11:10:34;100447.16;;;6.95;79.02
43770;BME280;6597;52.218;9.882;2023-02-01T11:13:02;100437.63;;;6.94;77.70
43770;BME280;6597;52.218;9.882;2023-02-01T11:15:29;100448.91;;;6.94;78.09
43770;BME280;6597;52.218;9.882;2023-02-01T11:17:56;100438.44;;;6.96;78.00
43770;BME280;6597;52.218;9.882;2023-02-01T11:20:35;100434.88;;;6.98;77.45
43770;BME280;6597;52.218;9.882;2023-02-01T11:23:13;100428.94;;;6.93;77.38
43770;BME280;6597;52.218;9.882;2023-02-01T11:25:48;100423.88;;;6.87;78.06
43770;BME280;6597;52.218;9.882;2023-02-01T11:28:16;100431.78;;;6.84;77.61
43770;BME280;6597;52.218;9.882;2023-02-01T11:30:45;100439.56;;;6.85;78.01
43770;BME280;6597;52.218;9.882;2023-02-01T11:33:15;100430.91;;;6.83;77.83
43770;BME280;6597;52.218;9.882;2023-02-01T11:35:44;100423.16;;;6.80;77.99
43770;BME280;6597;52.218;9.882;2023-02-01T11:38:19;100414.34;;;6.86;78.30
43770;BME280;6597;52.218;9.882;2023-02-01T11:40:47;100415.22;;;6.85;78.08
43770;BME280;6597;52.218;9.882;2023-02-01T11:43:18;100402.91;;;6.90;78.79
43770;BME280;6597;52.218;9.882;2023-02-01T11:45:55;100397.75;;;6.89;79.39
43770;BME280;6597;52.218;9.882;2023-02-01T11:48:24;100390.78;;;6.89;80.08
43770;BME280;6597;52.218;9.882;2023-02-01T11:50:57;100385.00;;;6.76;78.68
43770;BME280;6597;52.218;9.882;2023-02-01T11:53:39;100377.94;;;6.80;79.54
43770;BME280;6597;52.218;9.882;2023-02-01T11:56:18;100362.31;;;6.78;79.99
43770;BME280;6597;52.218;9.882;2023-02-01T11:59:02;100363.06;;;6.85;80.90
43770;BME280;6597;52.218;9.882;2023-02-01T12:01:42;100358.75;;;6.82;80.34
43770;BME280;6597;52.218;9.882;2023-02-01T12:04:33;100362.22;;;6.83;81.13
43770;BME280;6597;52.218;9.882;2023-02-01T12:07:12;100345.78;;;6.79;81.99
43770;BME280;6597;52.218;9.882;2023-02-01T12:09:54;100336.38;;;6.74;83.09
43770;BME280;6597;52.218;9.882;2023-02-01T12:12:34;100332.34;;;6.62;84.44
43770;BME280;6597;52.218;9.882;2023-02-01T12:15:12;100320.59;;;6.44;84.89
43770;BME280;6597;52.218;9.882;2023-02-01T12:17:54;100313.78;;;6.39;85.10
43770;BME280;6597;52.218;9.882;2023-02-01T12:20:42;100308.66;;;6.36;85.35
43770;BME280;6597;52.218;9.882;2023-02-01T12:23:28;100292.81;;;6.43;85.78
43770;BME280;6597;52.218;9.882;2023-02-01T12:26:12;100283.97;;;6.50;84.95
43770;BME280;6597;52.218;9.882;2023-02-01T12:29:01;100284.41;;;6.66;84.70
43770;BME280;6597;52.218;9.882;2023-02-01T12:31:41;100271.25;;;6.71;83.87
43770;BME280;6597;52.218;9.882;2023-02-01T12:34:23;100254.78;;;6.69;82.37
43770;BME280;6597;52.218;9.882;2023-02-01T12:37:00;100262.44;;;6.75;83.60
43770;BME280;6597;52.218;9.882;2023-02-01T12:39:32;100244.38;;;6.67;84.93
43770;BME280;6597;52.218;9.882;2023-02-01T12:42:04;100228.09;;;6.59;86.43
43770;BME280;6597;52.218;9.882;2023-02-01T12:44:43;100245.84;;;6.45;88.84
43770;BME280;6597;52.218;9.882;2023-02-01T12:47:16;100250.69;;;6.26;89.69
43770;BME280;6597;52.218;9.882;2023-02-01T12:49:48;100251.13;;;6.08;91.41
43770;BME280;6597;52.218;9.882;2023-02-01T12:52:18;100227.34;;;5.84;91.37
43770;BME280;6597;52.218;9.882;2023-02-01T12:54:49;100242.25;;;5.79;94.61
43770;BME280;6597;52.218;9.882;2023-02-01T12:57:22;100237.94;;;5.78;96.02
43770;BME280;6597;52.218;9.882;2023-02-01T12:59:53;100236.25;;;5.76;96.19
43770;BME280;6597;52.218;9.882;2023-02-01T13:02:25;100224.88;;;5.80;96.85
43770;BME280;6597;52.218;9.882;2023-02-01T13:04:59;100228.28;;;5.82;95.88
43770;BME280;6597;52.218;9.882;2023-02-01T13:07:30;100230.94;;;5.80;95.90
43770;BME280;6597;52.218;9.882;2023-02-01T13:10:03;100230.06;;;5.80;96.17
43770;BME280;6597;52.218;9.882;2023-02-01T13:12:36;100210.94;;;5.81;97.57
43770;BME280;6597;52.218;9.882;2023-02-01T13:15:16;100216.28;;;5.76;97.28
43770;BME280;6597;52.218;9.882;2023-02-01T13:17:44;100212.63;;;5.83;97.59
43770;BME280;6597;52.218;9.882;2023-02-01T13:20:18;100216.94;;;5.84;97.09
43770;BME280;6597;52.218;9.882;2023-02-01T13:22:48;100221.53;;;5.75;95.55
43770;BME280;6597;52.218;9.882;2023-02-01T13:25:28;100222.41;;;5.74;97.41
43770;BME280;6597;52.218;9.882;2023-02-01T13:28:01;100219.16;;;5.66;98.66
43770;BME280;6597;52.218;9.882;2023-02-01T13:30:38;100207.13;;;5.60;97.98
43770;BME280;6597;52.218;9.882;2023-02-01T13:33:23;100222.94;;;5.51;99.33
43770;BME280;6597;52.218;9.882;2023-02-01T13:36:05;100237.06;;;5.41;100.00